Redondo, Valles Caldera, New Mexico Weather observations

Data are for 10 minute period ending at time listed.
 Day   Time   Solar   Ave.   Ave.  Ave.  Vector  Max.   Baro.   Total    
  of    of     Rad.   Air    Rel.  Wind   Wind   Wind  Press.  Precip.   
Year   Day            Temp.  Hum.  Speed  Dir.   Gust                    
2017   (MST)  Kw/m2    F      %     mph   deg.    mph    mb.     in.     
-------------------------------------------------------------------------
  51    2:30   0.00   22.0    94    5.0   185    13.7   682.6    0.00 
  51    2:40   0.00   22.0    94    5.3   185    11.3   682.7    0.00 
  51    2:50   0.00   21.9    94    5.5   187    12.5   682.7    0.00 
  51    3:00   0.00   21.8    94    5.5   185    12.5   682.9    0.00 
  51    3:10   0.00   21.9    94    5.0   192    10.2   682.9    0.00 
  51    3:20   0.00   21.9    94    3.9   187     9.6   683.0    0.00 
  51    3:30   0.00   21.8    94    4.4   184    14.9   683.1    0.00 
  51    3:40   0.00   21.6    94    4.0   175     9.0   683.2    0.00 
  51    3:50   0.00   21.4    94    4.2   185    10.2   683.2    0.00 
  51    4:00   0.00   21.4    94    4.0   182     7.8   683.3    0.00 
  51    4:10   0.00   21.4    94    3.7   180     8.4   683.4    0.00 
  51    4:20   0.00   21.3    94    3.4   184     6.6   683.6    0.00 
  51    4:30   0.00   21.1    94    2.9   183     6.0   683.8    0.00 
  51    4:40   0.00   20.7    93    3.4   189     7.8   683.8    0.00 
  51    4:50   0.00   20.4    93    3.6   188    11.9   683.9    0.00 
  51    5:00   0.00   20.3    93    2.9   183     6.6   684.1    0.00 
  51    5:10   0.00   20.1    93    3.3   178     9.0   684.3    0.00 
  51    5:20   0.00   20.0    93    2.9   185     7.2   684.4    0.00 
  51    5:30   0.00   19.9    93    2.8   186     6.6   684.6    0.00 
  51    5:40   0.00   19.8    93    2.8   180     7.2   684.7    0.00 
  51    5:50   0.00   19.6    93    2.7   187     6.6   684.7    0.00 
  51    6:00   0.00   19.5    93    2.2   185     6.0   684.8    0.00 
  51    6:10   0.00   19.3    93    2.3   186     5.4   684.8    0.00 
  51    6:20   0.00   19.2    93    2.3   185     5.4   684.9    0.00 
  51    6:30   0.00   19.1    93    2.3   183     6.6   685.0    0.00 
  51    6:40   0.00   19.1    93    2.7   185     7.2   685.3    0.00 
  51    6:50   0.00   19.1    93    2.0   178     6.6   685.5    0.00 
  51    7:00   0.01   19.2    93    2.2   179     6.0   685.7    0.00 
  51    7:10   0.02   19.2    93    2.3   178     6.6   685.9    0.00 
  51    7:20   0.04   19.1    93    2.1   176     7.2   686.1    0.00 
  51    7:30   0.05   19.2    93    1.9   181     7.8   686.4    0.00 
  51    7:40   0.07   19.3    93    1.8   174     7.8   686.5    0.00 
  51    7:50   0.08   19.2    93    1.6   177     4.2   686.6    0.00 
  51    8:00   0.10   19.5    93    2.0   175     6.0   686.7    0.00 
  51    8:10   0.14   20.0    94    1.2   170     3.6   686.9    0.00 
  51    8:20   0.22   21.1    94    1.3   169     3.6   687.1    0.00 
  51    8:30   0.26   21.9    94    1.4   175     4.2   687.3    0.00 
  51    8:40   0.25   22.0    94    1.2   167     3.6   687.7    0.00 
  51    8:50   0.29   22.1    94    1.4   169     4.2   687.8    0.00 
  51    9:00   0.35   22.7    94    1.2   164     3.6   687.9    0.00 
  51    9:10   0.33   23.1    94    1.4   171     4.8   688.1    0.03 
  51    9:20   0.34   24.4    95    0.6   172     4.2   688.4    0.00 
  51    9:30   0.45   25.3    95    1.1   181     3.6   688.6    0.00 
  51    9:40   0.40   26.1    95    0.8   182     3.0   688.8    0.00 
  51    9:50   0.50   27.4    95    0.9   182     3.6   689.0    0.00 
  51   10:00   0.54   28.1    95    0.7   179     4.2   689.0    0.00 
  51   10:10   0.57   29.8    95    0.5   184     3.6   689.0    0.00 
  51   10:20   0.59   30.6    95    1.2   184     3.6   689.2    0.01 
  51   10:30   0.62   31.9    95    2.0   192     4.8   689.4    0.05 
  51   10:40   0.65   33.4    94    1.7   194     4.8   689.4    0.03 
  51   10:50   0.68   34.5    91    1.6   192     4.8   689.5    0.10 
  51   11:00   0.72   33.8    89    1.7   187     3.6   689.3    0.00 
  51   11:10   0.74   36.1    85    2.1   196     6.6   689.4    0.00 
  51   11:20   0.76   34.9    78    3.3   193     9.6   689.5    0.00 
  51   11:30   0.77   36.3    76    1.9   194     4.2   689.6    0.00 
  51   11:40   0.78   35.5    72    2.7   194     7.8   689.6    0.00 
  51   11:50   0.78   34.3    67    3.3   185     7.8   689.7    0.00 
  51   12:00   0.79   34.0    66    3.5   189     9.0   689.7    0.00 
  51   12:10   0.79   35.8    61    4.5   195    10.2   689.6    0.00 
  51   12:20   0.79   35.8    61    3.8   192     9.0   689.6    0.00 
  51   12:30   0.79   35.9    60    3.8   185     7.8   689.6    0.00 
  51   12:40   0.79   35.9    59    4.1   184    11.9   689.7    0.00 
  51   12:50   0.79   37.0    57    4.5   190    11.3   689.8    0.00 
  51   13:00   0.78   36.2    57    5.0   187    10.2   689.8    0.00 
  51   13:10   0.78   35.9    60    4.4   194    10.2   689.9    0.00 
  51   13:20   0.77   36.9    56    4.4   189     9.6   689.9    0.00 
  51   13:30   0.65   36.1    55    4.9   188    11.9   690.0    0.00 
  51   13:40   0.27   36.0    56    4.2   185     9.6   689.9    0.00 
  51   13:50   0.71   38.7    51    4.9   194     9.6   690.0    0.01 
  51   14:00   0.71   40.3    46    5.0   188    10.8   689.8    0.00 
  51   14:10   0.69   38.1    45    5.5   179    14.3   689.9    0.00 
  51   14:20   0.68   37.6    44    5.9   179    11.3   689.9    0.00 
  51   14:30   0.65   37.7    43    5.5   179    10.2   689.9    0.00 
  51   14:40   0.63   39.8    39    5.0   186     9.6   689.9    0.00 
  51   14:50   0.61   41.0    36    5.3   184    11.3   689.9    0.00 
  51   15:00   0.58   41.5    36    5.1   187     9.0   689.9    0.00 
  51   15:10   0.55   38.7    41    4.8   172    11.3   690.0    0.00 
  51   15:20   0.53   40.7    39    4.5   184    10.2   690.1    0.00 
  51   15:30   0.50   41.6    38    4.8   190     8.4   690.2    0.00 
  51   15:40   0.46   41.7    38    4.2   186     9.0   690.2    0.00 
  51   15:50   0.43   42.0    37    4.8   192     9.6   690.3    0.00 
  51   16:00   0.40   41.3    38    4.0   185     9.0   690.4    0.00 
  51   16:10   0.37   40.9    38    3.7   189     8.4   690.4    0.00 
  51   16:20   0.31   40.3    38    3.7   190     8.4   690.5    0.00 
  51   16:30   0.16   37.4    42    3.5   189     6.6   690.6    0.00 
  51   16:40   0.14   36.9    44    2.8   193     6.6   690.7    0.00 
  51   16:50   0.10   36.7    44    2.7   190     6.6   690.7    0.00 
  51   17:00   0.15   35.8    45    2.0   183     5.4   690.8    0.00 
  51   17:10   0.14   35.8    44    2.8   186     7.2   690.8    0.00 
  51   17:20   0.07   32.2    51    3.0   178     7.2   691.0    0.00 
  51   17:30   0.02   30.2    54    3.5   171     7.2   691.0    0.00 
  51   17:40   0.01   28.8    57    2.3   170     6.6   691.0    0.00 
  51   17:50   0.01   27.9    59    2.6   171     6.0   691.0    0.00 
  51   18:00   0.00   27.0    61    2.6   167     5.4   691.0    0.00 
  51   18:10   0.00   26.4    62    2.5   161     6.0   691.1    0.00 
  51   18:20   0.00   26.0    62    2.1   160     7.2   691.1    0.00 
  51   18:30   0.00   26.2    60    2.7   163     6.0   691.1    0.00 
  51   18:40   0.00   25.9    59    2.1   174     6.0   691.2    0.00 
  51   18:50   0.00   26.0    60    2.5   178     7.2   691.3    0.00 
  51   19:00   0.00   25.5    63    1.9   176     4.8   691.4    0.00 
  51   19:10   0.00   24.9    66    2.1   181     7.8   691.5    0.00 
  51   19:20   0.00   24.8    67    2.7   184     6.0   691.5    0.00 
  51   19:30   0.00   24.6    67    2.3   179     6.0   691.5    0.00 
  51   19:40   0.00   24.1    67    1.9   181     3.6   691.5    0.00 
  51   19:50   0.00   23.9    68    2.8   182     6.0   691.5    0.00 
  51   20:00   0.00   23.9    74    2.9   184     7.2   691.6    0.00 
  51   20:10   0.00   23.9    65    3.1   180     9.0   691.6    0.00 
  51   20:20   0.00   24.5    61    2.9   177     6.0   691.7    0.00 
  51   20:30   0.00   25.1    56    3.1   174     5.4   691.6    0.00 
  51   20:40   0.00   25.8    52    3.1   169     6.6   691.8    0.00 
  51   20:50   0.00   26.7    50    3.5   178     7.2   691.9    0.00 
  51   21:00   0.00   26.4    57    3.5   180     8.4   692.0    0.00 
  51   21:10   0.00   25.3    66    3.7   186     6.6   692.1    0.00 
  51   21:20   0.00   25.0    58    4.1   186     7.2   692.0    0.00 
  51   21:30   0.00   26.2    51    4.4   184    10.2   692.0    0.00 
  51   21:40   0.00   27.2    48    4.3   182     9.0   692.0    0.00 
  51   21:50   0.00   27.4    47    4.4   184     8.4   692.1    0.00 
  51   22:00   0.00   27.3    47    4.8   189     8.4   692.2    0.00 
  51   22:10   0.00   27.1    49    4.6   185    10.8   692.2    0.00 
  51   22:20   0.00   27.2    49    5.3   182    10.8   692.2    0.00 
  51   22:30   0.00   26.5    58    5.3   181    13.1   692.3    0.00 
  51   22:40   0.00   25.8    59    4.2   182     9.0   692.2    0.00 
  51   22:50   0.00   25.5    54    4.9   183    10.2   692.3    0.00 
  51   23:00   0.00   25.5    58    4.7   184     9.0   692.4    0.00 
  51   23:10   0.00   25.2    59    4.7   185     9.6   692.5    0.00 
  51   23:20   0.00   25.2    61    5.0   184    10.2   692.5    0.00 
  51   23:30   0.00   25.4    66    4.5   181     9.6   692.5    0.00 
  51   23:40   0.00   25.1    70    5.2   180    11.9   692.6    0.00 
  51   23:50   0.00   25.1    69    4.4   179     9.0   692.5    0.00 
  52    0:00   0.00   26.4    58    5.0   183    10.8   692.5    0.00 
  52    0:10   0.00   27.4    56    4.7   184    10.2   692.5    0.00 
  52    0:20   0.00   27.9    57    5.6   181    13.1   692.6    0.00 
  52    0:30   0.00   27.3    60    4.9   184     9.6   692.7    0.00 
  52    0:40   0.00   27.2    62    5.8   186    12.5   692.8    0.00 
  52    0:50   0.00   27.3    64    5.8   180    11.9   692.8    0.00 
  52    1:00   0.00   26.6    68    5.5   185    10.8   692.9    0.00 
  52    1:10   0.00   26.4    70    5.6   184    13.7   692.8    0.00 
  52    1:20   0.00   26.6    71    5.6   182    10.2   692.8    0.00 
  52    1:30   0.00   26.6    71    5.5   180     9.6   692.8    0.00 
  52    1:40   0.00   26.7    71    5.9   184    13.1   692.9    0.00 
  52    1:50   0.00   27.0    71    6.9   179    17.3   693.0    0.00 
  52    2:00   0.00   27.0    72    5.9   181    13.7   693.0    0.00 
  52    2:10   0.00   26.7    73    6.0   184    13.1   693.0    0.00 
  52    2:20   0.00   26.4    73    5.1   185    10.2   693.0    0.00 

Return to Redondo, Valles Caldera graphs page.


Western Regional Climate Center,wrcc@dri.edu